Time;durP1;ratioP1;P1;durP2;ratioP2;P2;SDS_P1;SDS_P2;PMS_P1;PMS_P2;Temp;Humidity;BMP_temperature;BMP_pressure;BME280_temperature;BME280_humidity;BME280_pressure;Samples;Min_cycle;Max_cycle;Signal;HPM_P1;HPM_P2
2021/11/12 00:04:15;;;;;;;34.03;17.40;;;4.20;1.00;;;;;;5062569;22;20300;-77
2021/11/12 00:14:48;;;;;;;31.70;18.30;;;3.30;1.00;;;;;;5031474;22;20721;-74
2021/11/12 00:17:20;;;;;;;30.07;18.23;;;3.30;1.00;;;;;;5025298;28;20192;-74
2021/11/12 00:19:47;;;;;;;25.13;18.00;;;3.20;1.00;;;;;;5019173;28;20180;-75
2021/11/12 00:22:13;;;;;;;29.03;17.47;;;3.20;1.00;;;;;;5140236;22;21102;-75
2021/11/12 00:24:39;;;;;;;24.10;17.83;;;3.10;1.00;;;;;;5042682;28;20633;-75
2021/11/12 00:27:06;;;;;;;24.47;17.30;;;3.00;1.00;;;;;;5045119;28;20187;-76
2021/11/12 00:29:40;;;;;;;35.57;17.93;;;3.10;1.00;;;;;;5049855;28;20714;-74
2021/11/12 00:44:47;;;;;;;20.93;16.50;;;3.30;1.00;;;;;;5045819;28;20269;-76
2021/11/12 00:47:25;;;;;;;30.37;18.57;;;3.30;1.00;;;;;;5043236;28;20187;-76
2021/11/12 00:55:15;;;;;;;32.47;18.30;;;3.30;1.00;;;;;;5039307;28;20642;-76
2021/11/12 00:57:41;;;;;;;27.53;17.63;;;3.30;1.00;;;;;;5063124;28;20186;-74
2021/11/12 01:00:09;;;;;;;28.07;19.20;;;3.30;1.00;;;;;;5048493;28;20191;-73
2021/11/12 01:02:36;;;;;;;30.33;18.50;;;3.30;1.00;;;;;;5048065;28;20190;-77
2021/11/12 01:05:02;;;;;;;23.13;18.10;;;3.30;1.00;;;;;;5044107;28;21058;-73
2021/11/12 01:07:29;;;;;;;21.00;17.03;;;3.30;1.00;;;;;;5044976;28;20193;-76
2021/11/12 01:09:55;;;;;;;24.67;17.00;;;3.20;1.00;;;;;;5042593;28;20554;-77
2021/11/12 01:12:21;;;;;;;22.47;17.37;;;3.20;1.00;;;;;;5044976;28;20194;-77
2021/11/12 01:14:47;;;;;;;24.57;17.40;;;3.10;1.00;;;;;;5047277;28;20649;-77
2021/11/12 01:17:13;;;;;;;21.47;16.87;;;3.10;1.00;;;;;;5046737;28;20698;-76
2021/11/12 01:19:38;;;;;;;23.07;17.10;;;3.10;1.00;;;;;;5038139;28;20325;-76
2021/11/12 01:22:05;;;;;;;21.80;17.20;;;3.10;1.00;;;;;;5046154;28;20186;-74
2021/11/12 01:24:31;;;;;;;23.50;17.00;;;3.00;1.00;;;;;;5044436;28;20198;-76
2021/11/12 01:26:57;;;;;;;24.37;17.30;;;2.90;1.00;;;;;;5073568;23;20314;-77
2021/11/12 01:29:22;;;;;;;24.63;17.50;;;3.00;1.00;;;;;;5064834;23;20238;-73
2021/11/12 01:31:48;;;;;;;25.63;17.40;;;2.70;1.00;;;;;;5048702;28;20646;-74
2021/11/12 01:34:14;;;;;;;18.93;16.13;;;3.20;1.00;;;;;;5048193;28;20299;-75
2021/11/12 01:36:44;;;;;;;21.23;16.27;;;3.10;1.00;;;;;;5043597;28;20190;-76
2021/11/12 01:39:14;;;;;;;22.37;15.90;;;3.10;1.00;;;;;;5042946;28;20191;-75
2021/11/12 01:41:46;;;;;;;21.47;17.17;;;2.90;1.00;;;;;;5073322;23;20259;-77
2021/11/12 01:44:12;;;;;;;18.53;15.60;;;3.10;1.00;;;;;;5020662;28;20316;-76
2021/11/12 01:46:50;;;;;;;24.27;17.20;;;3.10;1.00;;;;;;5030953;28;20189;-75
2021/11/12 01:51:56;;;;;;;25.10;15.90;;;3.10;1.00;;;;;;5026331;28;20277;-76
2021/11/12 01:54:48;;;;;;;23.27;17.13;;;3.10;1.00;;;;;;5049821;22;20230;-75
2021/11/12 01:59:43;;;;;;;17.00;15.00;;;3.10;1.00;;;;;;5048188;28;20191;-76
2021/11/12 02:02:09;;;;;;;21.17;14.83;;;3.10;1.00;;;;;;5045906;28;20195;-77
2021/11/12 02:04:36;;;;;;;18.37;15.00;;;2.90;1.00;;;;;;5043104;28;20206;-75
2021/11/12 02:07:02;;;;;;;19.60;15.07;;;3.10;1.00;;;;;;5117202;23;20230;-75
2021/11/12 02:09:29;;;;;;;18.03;14.60;;;3.00;1.00;;;;;;5029288;28;20249;-74
2021/11/12 02:11:59;;;;;;;17.37;15.17;;;3.00;1.00;;;;;;5028903;28;20218;-76
2021/11/12 02:14:26;;;;;;;20.97;15.33;;;3.00;1.00;;;;;;5027529;28;20227;-74
2021/11/12 02:16:59;;;;;;;19.03;15.83;;;2.90;1.00;;;;;;5028423;28;20191;-75
2021/11/12 02:19:26;;;;;;;19.80;14.87;;;2.90;1.00;;;;;;5031030;28;20190;-76
2021/11/12 02:22:04;;;;;;;22.03;15.07;;;2.80;1.00;;;;;;5043100;28;20523;-74
2021/11/12 02:24:30;;;;;;;19.33;14.90;;;2.80;1.00;;;;;;5025310;28;20625;-75
2021/11/12 02:26:58;;;;;;;18.03;14.00;;;2.80;1.00;;;;;;5025326;28;20179;-75
2021/11/12 02:29:26;;;;;;;19.90;14.83;;;2.80;1.00;;;;;;5042555;28;20218;-76
2021/11/12 02:31:52;;;;;;;16.47;14.07;;;2.80;1.00;;;;;;5020988;28;20192;-74
2021/11/12 02:34:18;;;;;;;19.23;15.23;;;2.90;1.00;;;;;;5023274;28;20217;-77
2021/11/12 02:36:44;;;;;;;20.40;15.90;;;2.90;1.00;;;;;;5029444;28;20187;-75
2021/11/12 02:39:13;;;;;;;19.20;15.63;;;3.10;1.00;;;;;;5025935;28;20187;-73
2021/11/12 02:41:40;;;;;;;20.87;16.07;;;3.10;1.00;;;;;;5025701;28;20203;-77
2021/11/12 02:44:06;;;;;;;20.00;14.30;;;3.00;1.00;;;;;;5028056;28;20254;-73
2021/11/12 02:46:32;;;;;;;23.10;16.40;;;3.20;1.00;;;;;;5023136;28;20546;-73
2021/11/12 02:48:58;;;;;;;19.30;15.67;;;3.20;1.00;;;;;;5025014;28;20198;-75
2021/11/12 02:51:31;;;;;;;21.83;14.87;;;3.10;1.00;;;;;;5027254;28;20283;-74
2021/11/12 02:53:58;;;;;;;21.20;12.33;;;3.20;1.00;;;;;;5023901;28;20341;-75
2021/11/12 02:56:27;;;;;;;16.10;10.80;;;3.30;1.00;;;;;;5032346;28;20248;-74
2021/11/12 02:59:10;;;;;;;12.40;9.63;;;3.30;1.00;;;;;;5028689;28;20192;-73
2021/11/12 03:01:38;;;;;;;12.33;9.73;;;3.40;1.00;;;;;;5021984;28;20250;-73
2021/11/12 03:04:06;;;;;;;10.63;9.03;;;3.30;1.00;;;;;;5026861;28;20644;-74
2021/11/12 03:06:31;;;;;;;12.67;8.50;;;3.30;1.00;;;;;;5025060;28;20219;-73
2021/11/12 03:09:01;;;;;;;10.90;8.63;;;3.30;1.00;;;;;;5023861;28;20202;-76
2021/11/12 03:11:26;;;;;;;10.87;8.83;;;3.30;1.00;;;;;;5022272;28;20646;-72
2021/11/12 03:13:52;;;;;;;10.63;8.57;;;3.30;1.00;;;;;;5017543;28;20220;-73
2021/11/12 03:16:19;;;;;;;10.20;8.57;;;3.20;1.00;;;;;;5020999;28;20254;-74
2021/11/12 03:18:45;;;;;;;12.80;9.13;;;3.20;1.00;;;;;;5027837;28;20194;-75
2021/11/12 03:21:15;;;;;;;10.63;8.77;;;3.10;1.00;;;;;;5025958;28;20601;-74
2021/11/12 03:23:50;;;;;;;10.03;8.63;;;3.10;1.00;;;;;;5022413;28;20195;-74
2021/11/12 03:26:24;;;;;;;11.20;8.83;;;3.50;1.00;;;;;;5018708;28;20179;-76
2021/11/12 04:01:56;;;;;;;10.00;8.20;;;3.20;1.00;;;;;;5029085;28;20214;-73
2021/11/12 04:04:36;;;;;;;12.87;10.00;;;3.10;1.00;;;;;;5028982;28;20210;-75
2021/11/12 04:40:17;;;;;;;13.00;9.97;;;3.00;1.00;;;;;;5024457;28;20187;-75
2021/11/12 05:10:16;;;;;;;18.33;11.63;;;2.80;1.00;;;;;;5052824;28;20658;-76
2021/11/12 05:34:35;;;;;;;15.73;11.97;;;2.90;1.00;;;;;;5044335;22;20288;-75
2021/11/12 05:45:32;;;;;;;15.33;12.40;;;2.90;1.00;;;;;;5045583;28;20209;-76
2021/11/12 05:50:54;;;;;;;20.30;13.50;;;2.80;1.00;;;;;;5044765;28;20195;-74
2021/11/12 05:56:04;;;;;;;13.73;11.60;;;2.90;1.00;;;;;;5046954;28;20194;-74
2021/11/12 05:58:30;;;;;;;19.60;12.50;;;2.90;1.00;;;;;;5092682;23;20234;-75
2021/11/12 06:00:56;;;;;;;19.37;12.10;;;2.90;1.00;;;;;;5020355;28;20964;-72
2021/11/12 06:03:21;;;;;;;17.70;12.10;;;2.90;1.00;;;;;;5025904;28;20226;-73
2021/11/12 06:05:47;;;;;;;14.63;11.57;;;2.90;1.00;;;;;;5003312;28;20202;-74
2021/11/12 06:08:13;;;;;;;18.50;11.90;;;2.90;1.00;;;;;;5003611;28;20207;-74
2021/11/12 06:10:38;;;;;;;16.23;11.77;;;2.90;1.00;;;;;;5006479;28;20197;-76
2021/11/12 06:13:05;;;;;;;17.33;11.07;;;2.90;1.00;;;;;;5016089;23;20192;-74
2021/11/12 06:15:31;;;;;;;18.40;12.57;;;2.90;1.00;;;;;;5016899;28;20220;-75
2021/11/12 06:17:57;;;;;;;16.23;11.93;;;2.90;1.00;;;;;;5014772;28;20194;-75
2021/11/12 06:20:23;;;;;;;15.07;11.20;;;2.90;1.00;;;;;;5009353;28;20192;-75
2021/11/12 06:22:49;;;;;;;15.03;12.40;;;3.00;1.00;;;;;;5010537;28;20180;-73
2021/11/12 06:25:15;;;;;;;18.90;12.53;;;2.90;1.00;;;;;;5004298;28;20200;-72
2021/11/12 06:27:40;;;;;;;18.00;11.87;;;2.90;1.00;;;;;;5021579;28;20188;-74
2021/11/12 06:30:08;;;;;;;17.03;13.30;;;2.90;1.00;;;;;;5005118;28;20234;-75
2021/11/12 06:32:33;;;;;;;14.97;11.30;;;2.90;1.00;;;;;;5000281;28;20192;-76
2021/11/12 06:35:00;;;;;;;18.20;12.67;;;2.90;1.00;;;;;;5005325;28;20601;-74
2021/11/12 06:37:26;;;;;;;13.70;11.53;;;3.00;1.00;;;;;;5008925;28;20195;-77
2021/11/12 06:39:53;;;;;;;16.60;12.07;;;3.00;1.00;;;;;;5005473;28;20191;-74
2021/11/12 06:42:20;;;;;;;15.43;12.33;;;3.00;1.00;;;;;;5006214;28;20212;-74
2021/11/12 06:50:12;;;;;;;14.43;11.60;;;3.00;1.00;;;;;;5002577;28;20191;-76
2021/11/12 06:52:41;;;;;;;18.17;12.53;;;3.10;1.00;;;;;;5018567;28;20196;-75
2021/11/12 06:55:09;;;;;;;17.50;12.10;;;3.10;1.00;;;;;;5013918;28;20642;-76
2021/11/12 06:57:35;;;;;;;19.23;13.77;;;3.00;1.00;;;;;;5009667;28;20242;-74
2021/11/12 07:00:07;;;;;;;18.50;12.87;;;3.00;1.00;;;;;;5013907;28;20187;-76
2021/11/12 07:02:32;;;;;;;21.40;13.90;;;3.10;1.00;;;;;;5006474;28;20291;-74
2021/11/12 07:04:58;;;;;;;16.13;13.03;;;3.00;1.00;;;;;;5005814;28;20672;-76
2021/11/12 07:07:24;;;;;;;18.63;14.20;;;3.10;1.00;;;;;;5008087;28;20242;-75
2021/11/12 07:09:51;;;;;;;23.07;13.60;;;3.00;1.00;;;;;;5008829;28;20192;-75
2021/11/12 07:12:17;;;;;;;17.20;13.67;;;3.10;1.00;;;;;;5016806;28;20592;-74
2021/11/12 07:14:44;;;;;;;17.00;12.77;;;3.10;1.00;;;;;;5009846;28;20254;-76
2021/11/12 07:17:10;;;;;;;18.93;13.47;;;3.10;1.00;;;;;;5003960;28;20450;-76
2021/11/12 07:19:36;;;;;;;24.83;15.00;;;3.20;1.00;;;;;;5014852;28;20890;-75
2021/11/12 07:22:03;;;;;;;20.07;14.50;;;3.10;1.00;;;;;;5007528;28;20191;-73
2021/11/12 07:24:29;;;;;;;18.20;14.00;;;3.20;1.00;;;;;;5002456;28;20301;-75
2021/11/12 07:26:55;;;;;;;20.20;15.57;;;3.20;1.00;;;;;;5005076;28;20191;-72
2021/11/12 07:29:23;;;;;;;17.40;14.17;;;3.20;1.00;;;;;;5002408;28;20187;-75
2021/11/12 07:31:49;;;;;;;21.67;16.20;;;3.20;1.00;;;;;;5007356;28;20274;-75
2021/11/12 07:34:14;;;;;;;25.13;16.07;;;3.30;1.00;;;;;;5005442;28;20275;-77
2021/11/12 07:36:45;;;;;;;22.93;15.83;;;3.20;1.00;;;;;;5050507;23;20334;-74
2021/11/12 07:47:14;;;;;;;21.60;16.33;;;3.30;1.00;;;;;;5022874;28;20178;-66
2021/11/12 07:49:41;;;;;;;19.07;15.37;;;3.20;1.00;;;;;;5025585;28;20242;-68
2021/11/12 07:52:08;;;;;;;21.43;14.97;;;3.20;1.00;;;;;;5027726;28;20628;-72
2021/11/12 07:54:34;;;;;;;20.70;15.33;;;3.20;1.00;;;;;;5032526;22;20666;-73
2021/11/12 07:57:01;;;;;;;24.83;14.97;;;3.20;1.00;;;;;;5021460;28;20286;-74
2021/11/12 07:59:28;;;;;;;17.53;14.07;;;3.20;1.00;;;;;;5024927;28;20207;-73
2021/11/12 08:01:54;;;;;;;31.03;15.37;;;3.10;1.00;;;;;;5020363;28;20195;-75
2021/11/12 08:06:56;;;;;;;20.60;13.83;;;3.00;1.00;;;;;;5025739;28;20214;-75
2021/11/12 08:09:26;;;;;;;19.30;13.97;;;3.10;1.00;;;;;;5682746;22;20249;-73
2021/11/12 08:12:02;;;;;;;19.83;14.23;;;3.10;1.00;;;;;;5027844;28;20702;-73
2021/11/12 08:14:35;;;;;;;22.23;13.77;;;3.20;1.00;;;;;;5031401;28;20241;-75
2021/11/12 08:19:49;;;;;;;18.97;14.37;;;3.10;1.00;;;;;;5039205;22;20227;-74
2021/11/12 08:22:28;;;;;;;18.23;14.17;;;3.20;1.00;;;;;;5181990;22;20223;-76
2021/11/12 08:25:08;;;;;;;18.20;13.63;;;3.20;1.00;;;;;;5042453;28;20182;-77
2021/11/12 08:45:31;;;;;;;18.17;14.40;;;3.10;1.00;;;;;;5070274;22;20222;-77
2021/11/12 08:48:04;;;;;;;20.13;15.23;;;3.20;1.00;;;;;;5055355;28;20179;-76
2021/11/12 08:50:31;;;;;;;21.10;15.57;;;3.30;1.00;;;;;;5055396;28;20259;-78
2021/11/12 08:53:05;;;;;;;21.17;15.50;;;3.40;1.00;;;;;;5117664;23;20240;-77
2021/11/12 08:55:31;;;;;;;21.83;14.50;;;3.50;1.00;;;;;;5017987;28;20203;-78
2021/11/12 09:03:08;;;;;;;20.57;14.83;;;3.60;1.00;;;;;;5741654;22;20244;-81
2021/11/12 09:05:35;;;;;;;21.33;15.80;;;3.70;1.00;;;;;;5155997;22;20673;-78
2021/11/12 09:08:01;;;;;;;18.77;15.10;;;3.70;1.00;;;;;;5014856;28;20270;-80
2021/11/12 09:18:13;;;;;;;17.57;14.27;;;3.80;1.00;;;;;;5426593;22;20259;-85
2021/11/12 09:20:38;;;;;;;14.93;12.83;;;4.00;1.00;;;;;;5038912;28;20196;-83
2021/11/12 09:23:04;;;;;;;14.97;12.13;;;3.80;1.00;;;;;;5044913;28;20290;-83
2021/11/12 09:25:30;;;;;;;14.60;11.00;;;;;;;;;;5044086;28;20290;-82
2021/11/12 09:27:56;;;;;;;14.33;11.83;;;3.80;1.00;;;;;;5043854;28;20227;-85
2021/11/12 09:30:24;;;;;;;13.87;11.80;;;3.80;1.00;;;;;;5045558;28;20659;-85
2021/11/12 09:32:53;;;;;;;15.90;12.40;;;3.80;1.00;;;;;;5038270;28;20223;-85
2021/11/12 09:35:20;;;;;;;15.33;12.03;;;3.70;1.00;;;;;;5042319;28;20214;-83
2021/11/12 09:37:46;;;;;;;15.13;12.13;;;3.70;1.00;;;;;;5040450;28;20189;-83
2021/11/12 09:40:12;;;;;;;15.63;11.03;;;3.70;1.00;;;;;;5039769;28;20192;-83
2021/11/12 09:42:38;;;;;;;13.67;11.30;;;;;;;;;;5031823;28;20242;-83
2021/11/12 09:45:06;;;;;;;16.33;12.57;;;3.60;1.00;;;;;;5047591;28;20199;-83
2021/11/12 09:47:33;;;;;;;19.13;13.20;;;3.60;1.00;;;;;;5040633;28;20251;-80
2021/11/12 09:50:01;;;;;;;14.70;11.77;;;3.70;1.00;;;;;;5051645;28;20564;-84
2021/11/12 09:52:30;;;;;;;15.50;13.03;;;3.70;1.00;;;;;;5041331;28;20274;-83
2021/11/12 09:54:56;;;;;;;17.03;12.27;;;3.80;1.00;;;;;;5039577;28;20692;-87
2021/11/12 09:57:23;;;;;;;16.50;12.43;;;3.90;1.00;;;;;;5041301;28;20188;-83
2021/11/12 09:59:55;;;;;;;17.47;12.43;;;3.80;1.00;;;;;;5041478;28;20234;-87
2021/11/12 10:02:21;;;;;;;16.17;12.47;;;4.60;1.00;;;;;;5043180;28;20594;-86
2021/11/12 10:04:47;;;;;;;14.67;11.77;;;3.70;1.00;;;;;;5041034;28;20215;-88
2021/11/12 10:07:16;;;;;;;14.97;12.23;;;3.80;1.00;;;;;;5035206;28;20204;-88
2021/11/12 10:09:44;;;;;;;14.17;12.03;;;3.80;1.00;;;;;;5035202;28;20185;-87
2021/11/12 10:12:11;;;;;;;17.90;13.37;;;3.80;1.00;;;;;;5038613;28;20184;-88
2021/11/12 10:17:15;;;;;;;14.70;12.13;;;3.70;1.00;;;;;;5041419;28;20203;-87
2021/11/12 10:19:45;;;;;;;17.67;12.30;;;3.80;1.00;;;;;;5037612;28;20279;-86
2021/11/12 10:22:11;;;;;;;15.53;12.47;;;3.80;1.00;;;;;;5047938;28;20209;-87
2021/11/12 10:24:41;;;;;;;16.60;13.00;;;4.00;1.00;;;;;;5035899;28;20197;-86
2021/11/12 10:27:11;;;;;;;15.30;12.33;;;3.90;1.00;;;;;;5042453;28;20185;-85
2021/11/12 10:29:45;;;;;;;16.20;13.40;;;3.90;1.00;;;;;;5030888;28;20636;-84
2021/11/12 10:32:14;;;;;;;17.13;12.30;;;3.90;1.00;;;;;;5030642;28;20432;-85
2021/11/12 10:34:42;;;;;;;21.93;13.47;;;3.90;1.00;;;;;;5036832;28;20211;-84
2021/11/12 10:37:10;;;;;;;17.73;12.67;;;3.80;1.00;;;;;;5038300;28;20185;-84
2021/11/12 10:39:43;;;;;;;18.67;13.00;;;3.90;1.00;;;;;;5035350;28;20222;-84
2021/11/12 10:42:15;;;;;;;18.70;13.70;;;3.90;1.00;;;;;;5039290;28;20248;-86
2021/11/12 10:44:46;;;;;;;15.07;12.33;;;3.80;1.00;;;;;;5031990;28;20567;-86
2021/11/12 10:47:13;;;;;;;16.90;13.50;;;3.70;1.00;;;;;;5039348;28;20190;-84
2021/11/12 10:49:42;;;;;;;18.50;12.97;;;3.50;1.00;;;;;;5030773;28;20199;-84
2021/11/12 10:52:21;;;;;;;18.93;13.13;;;3.60;1.00;;;;;;5036525;28;20184;-83
2021/11/12 10:54:52;;;;;;;17.60;13.70;;;3.70;1.00;;;;;;5037449;28;20294;-83
2021/11/12 10:57:32;;;;;;;19.00;13.93;;;3.90;1.00;;;;;;5042745;28;20210;-83
2021/11/12 11:00:20;;;;;;;16.57;13.23;;;3.70;1.00;;;;;;5039767;28;20262;-83
2021/11/12 11:02:50;;;;;;;17.43;13.83;;;3.70;1.00;;;;;;5032117;28;20279;-85
2021/11/12 11:05:39;;;;;;;16.47;13.63;;;3.70;1.00;;;;;;5028837;28;20209;-85
2021/11/12 11:08:20;;;;;;;16.77;13.80;;;3.70;1.00;;;;;;5031247;28;20214;-87
2021/11/12 11:11:04;;;;;;;16.10;13.60;;;3.80;1.00;;;;;;5034335;28;20218;-88
2021/11/12 11:13:32;;;;;;;19.27;13.00;;;3.70;1.00;;;;;;5034393;28;20207;-87
2021/11/12 11:16:00;;;;;;;14.77;12.03;;;3.80;1.00;;;;;;5037077;28;20199;-87
2021/11/12 11:18:31;;;;;;;18.10;13.43;;;3.80;1.00;;;;;;5043567;28;20209;-88
2021/11/12 11:21:09;;;;;;;17.27;11.97;;;3.80;1.00;;;;;;5026870;28;20238;-87
2021/11/12 11:24:00;;;;;;;15.43;13.17;;;3.70;1.00;;;;;;5024687;28;20279;-87
2021/11/12 11:26:46;;;;;;;18.77;13.33;;;3.70;1.00;;;;;;5019327;28;20212;-86
2021/11/12 11:29:17;;;;;;;17.10;12.67;;;3.70;1.00;;;;;;5026806;28;20196;-83
2021/11/12 11:31:44;;;;;;;14.73;12.33;;;3.60;1.00;;;;;;5031956;28;20190;-87
2021/11/12 11:34:11;;;;;;;15.93;12.77;;;3.60;1.00;;;;;;5045209;28;20219;-84
2021/11/12 11:36:44;;;;;;;20.07;14.00;;;3.50;1.00;;;;;;5051632;28;20186;-84
2021/11/12 11:39:12;;;;;;;18.17;14.17;;;3.40;1.00;;;;;;5020945;28;20194;-84
2021/11/12 11:41:39;;;;;;;18.50;13.17;;;3.30;1.00;;;;;;5040358;28;20237;-84
2021/11/12 11:44:05;;;;;;;16.87;13.37;;;;;;;;;;5037552;28;20193;-84
2021/11/12 11:46:36;;;;;;;20.63;14.27;;;3.40;1.00;;;;;;5037460;28;20189;-84
2021/11/12 11:49:07;;;;;;;23.10;14.90;;;3.40;1.00;;;;;;5037057;28;20195;-83
2021/11/12 11:51:33;;;;;;;20.63;13.67;;;3.40;1.00;;;;;;5036514;28;20241;-82
2021/11/12 11:54:12;;;;;;;16.53;14.23;;;3.20;1.00;;;;;;5039675;28;20215;-83
2021/11/12 11:56:44;;;;;;;18.47;14.40;;;3.10;1.00;;;;;;5035023;28;20183;-83
2021/11/12 11:59:29;;;;;;;20.43;14.43;;;3.30;1.00;;;;;;5034946;28;20243;-83
2021/11/12 12:01:56;;;;;;;17.93;15.20;;;3.10;1.00;;;;;;5036336;28;20187;-83
2021/11/12 12:04:26;;;;;;;18.93;15.80;;;3.00;1.00;;;;;;5037751;28;20264;-83
2021/11/12 12:07:01;;;;;;;17.80;14.93;;;3.00;1.00;;;;;;5033060;28;20207;-83
2021/11/12 12:09:49;;;;;;;18.80;14.20;;;3.00;1.00;;;;;;5037741;28;20203;-85
2021/11/12 12:12:35;;;;;;;26.97;17.80;;;2.80;1.00;;;;;;5045133;28;20187;-85
2021/11/12 12:15:01;;;;;;;21.13;15.80;;;2.70;1.00;;;;;;4978246;28;20230;-84
2021/11/12 12:17:28;;;;;;;18.23;14.63;;;2.60;1.00;;;;;;5041787;28;20202;-85
2021/11/12 12:20:38;;;;;;;19.43;14.50;;;3.20;1.00;;;;;;5036110;28;20191;-84
2021/11/12 12:37:24;;;;;;;16.33;13.20;;;2.90;1.00;;;;;;5040547;28;20188;-84
2021/11/12 12:43:24;;;;;;;17.63;15.10;;;2.80;1.00;;;;;;5038114;28;20199;-83
2021/11/12 13:25:48;;;;;;;17.13;13.73;;;2.60;1.00;;;;;;5035219;28;20223;-82
2021/11/12 13:28:19;;;;;;;21.80;14.83;;;2.70;1.00;;;;;;5032352;28;20187;-82
2021/11/12 13:30:49;;;;;;;18.43;14.63;;;2.70;1.00;;;;;;5040380;28;20179;-83
2021/11/12 13:33:35;;;;;;;19.13;14.37;;;3.90;1.00;;;;;;5039288;28;20183;-83
2021/11/12 13:36:20;;;;;;;23.97;14.97;;;2.80;1.00;;;;;;5026817;28;20188;-82
2021/11/12 13:38:47;;;;;;;20.17;15.57;;;2.90;1.00;;;;;;5032787;28;20187;-84
2021/11/12 13:41:15;;;;;;;21.03;15.50;;;3.00;1.00;;;;;;5028580;28;20191;-82
2021/11/12 13:43:44;;;;;;;23.37;15.73;;;2.80;1.00;;;;;;5033101;28;20326;-82
2021/11/12 13:46:11;;;;;;;20.23;15.90;;;4.60;1.00;;;;;;5048376;28;20313;-82
2021/11/12 13:48:52;;;;;;;18.87;15.63;;;2.80;1.00;;;;;;5043253;28;20191;-81
2021/11/12 13:51:28;;;;;;;19.63;16.33;;;2.90;1.00;;;;;;5036915;28;20215;-82
2021/11/12 13:53:54;;;;;;;18.80;16.00;;;3.00;1.00;;;;;;5042513;28;20246;-81
2021/11/12 13:56:20;;;;;;;18.50;15.40;;;4.10;1.00;;;;;;5025471;28;20191;-81
2021/11/12 13:58:46;;;;;;;24.40;17.37;;;3.20;1.00;;;;;;5038120;28;20678;-80
2021/11/12 14:01:38;;;;;;;21.53;16.67;;;3.10;1.00;;;;;;5044999;28;20203;-81
2021/11/12 14:04:21;;;;;;;22.83;17.20;;;3.00;1.00;;;;;;5027354;28;20210;-82
2021/11/12 14:06:48;;;;;;;24.40;20.37;;;3.10;1.00;;;;;;5041107;28;20211;-81
2021/11/12 14:09:19;;;;;;;25.30;20.50;;;3.10;1.00;;;;;;5039512;28;20218;-82
2021/11/12 14:11:45;;;;;;;24.73;17.03;;;3.50;1.00;;;;;;5042495;28;20213;-82
2021/11/12 14:14:20;;;;;;;20.47;15.80;;;3.10;1.00;;;;;;5032799;28;20207;-82
2021/11/12 14:16:55;;;;;;;20.70;15.77;;;3.00;1.00;;;;;;5040380;28;20214;-81
2021/11/12 14:22:10;;;;;;;22.20;15.10;;;3.00;1.00;;;;;;5041497;28;20199;-81
2021/11/12 14:40:21;;;;;;;23.93;16.97;;;2.80;1.00;;;;;;5044522;28;20198;-82
2021/11/12 14:45:38;;;;;;;21.07;16.20;;;2.70;1.00;;;;;;5044550;28;20222;-81
2021/11/12 14:48:29;;;;;;;22.73;17.27;;;4.80;1.00;;;;;;5029833;28;20201;-82
2021/11/12 14:51:03;;;;;;;23.43;15.33;;;2.80;1.00;;;;;;5038003;28;20279;-81
2021/11/12 14:53:38;;;;;;;19.17;15.53;;;2.70;1.00;;;;;;5049363;28;20219;-81
2021/11/12 14:56:18;;;;;;;21.27;15.83;;;2.60;1.00;;;;;;5038406;28;20199;-82
2021/11/12 14:58:48;;;;;;;20.37;16.43;;;2.60;1.00;;;;;;5041135;28;20197;-82
2021/11/12 15:01:37;;;;;;;20.03;15.93;;;2.60;1.00;;;;;;5033130;28;20186;-82
2021/11/12 15:04:04;;;;;;;21.47;16.67;;;2.60;1.00;;;;;;5039037;28;20867;-82
2021/11/12 15:06:32;;;;;;;21.07;15.97;;;;;;;;;;5032261;28;20211;-81
2021/11/12 15:11:39;;;;;;;20.93;15.10;;;2.50;1.00;;;;;;5039139;28;20184;-82
2021/11/12 15:14:10;;;;;;;24.70;17.97;;;2.50;1.00;;;;;;5037256;28;22113;-81
2021/11/12 15:16:38;;;;;;;24.23;17.33;;;2.40;1.00;;;;;;5036593;28;20183;-84
2021/11/12 15:19:05;;;;;;;24.67;18.13;;;2.40;1.00;;;;;;5036825;28;20225;-85
2021/11/12 15:22:41;;;;;;;26.90;16.10;;;;;;;;;;5040464;28;20252;-82
2021/11/12 15:32:27;;;;;;;28.70;17.57;;;2.30;1.00;;;;;;4978224;28;20208;-84
2021/11/12 15:34:57;;;;;;;33.70;18.27;;;2.20;1.00;;;;;;4963914;28;20213;-82
2021/11/12 15:45:16;;;;;;;28.17;18.63;;;2.90;1.00;;;;;;4980178;28;20227;-81
2021/11/12 15:47:47;;;;;;;31.33;19.20;;;;;;;;;;4970174;28;20264;-88
2021/11/12 15:50:20;;;;;;;28.00;18.97;;;2.20;1.00;;;;;;4981526;28;20228;-84
2021/11/12 15:52:54;;;;;;;32.87;21.00;;;2.30;1.00;;;;;;4970445;28;20288;-83
2021/11/12 15:55:26;;;;;;;31.13;20.13;;;2.40;1.00;;;;;;4965956;28;20267;-83
2021/11/12 16:11:34;;;;;;;31.80;20.00;;;2.50;1.00;;;;;;5006646;28;20230;-82
2021/11/12 16:26:40;;;;;;;31.03;18.80;;;2.30;1.00;;;;;;4984787;28;20324;-83
2021/11/12 16:31:46;;;;;;;35.70;20.87;;;2.30;1.00;;;;;;5032281;28;20188;-83
2021/11/12 16:34:18;;;;;;;33.87;20.57;;;2.30;1.00;;;;;;5037571;28;20218;-83
2021/11/12 16:36:49;;;;;;;37.17;20.23;;;2.30;1.00;;;;;;5041615;28;20206;-83
2021/11/12 16:39:19;;;;;;;35.43;21.33;;;3.90;1.00;;;;;;5032504;28;20203;-83
2021/11/12 16:44:35;;;;;;;37.17;21.30;;;2.40;1.00;;;;;;5035175;28;20271;-82
2021/11/12 16:47:12;;;;;;;37.97;22.10;;;2.30;1.00;;;;;;5032504;28;20235;-82
2021/11/12 16:52:14;;;;;;;36.97;20.73;;;2.50;1.00;;;;;;5040168;28;20187;-82
2021/11/12 17:08:01;;;;;;;40.33;22.60;;;2.40;1.00;;;;;;5037092;28;21564;-80
2021/11/12 17:10:44;;;;;;;39.83;22.20;;;2.40;1.00;;;;;;5036099;28;20273;-80
2021/11/12 17:13:19;;;;;;;37.27;21.27;;;2.50;1.00;;;;;;5034887;28;20184;-81
2021/11/12 17:16:11;;;;;;;39.47;21.20;;;2.60;1.00;;;;;;5034376;28;20191;-83
2021/11/12 17:46:20;;;;;;;34.57;18.73;;;2.40;1.00;;;;;;5023954;28;20245;-81
2021/11/12 17:48:54;;;;;;;36.40;18.50;;;2.40;1.00;;;;;;5035279;28;20194;-81
2021/11/12 17:54:09;;;;;;;36.87;18.37;;;2.50;1.00;;;;;;5030768;28;20203;-81
2021/11/12 18:15:53;;;;;;;33.17;19.97;;;2.40;1.00;;;;;;5027927;28;20272;-83
2021/11/12 21:44:23;;;;;;;26.30;18.90;;;2.60;1.00;;;;;;5029990;28;20252;-82
2021/11/12 21:46:52;;;;;;;28.47;19.27;;;2.70;1.00;;;;;;5030781;28;20347;-82
2021/11/12 21:49:18;;;;;;;32.10;18.93;;;;;;;;;;5030671;28;20252;-82
2021/11/12 21:51:45;;;;;;;32.07;18.43;;;2.60;1.00;;;;;;5035949;28;20655;-81
2021/11/12 21:54:11;;;;;;;30.37;18.23;;;3.60;1.00;;;;;;5032815;28;20216;-82
2021/11/12 21:56:37;;;;;;;29.27;18.20;;;2.80;1.00;;;;;;5034704;28;20187;-81
2021/11/12 21:59:04;;;;;;;27.73;18.57;;;2.60;1.00;;;;;;5031397;28;20188;-81
2021/11/12 22:01:30;;;;;;;28.47;18.53;;;2.70;1.00;;;;;;5035615;28;20222;-82
2021/11/12 22:03:57;;;;;;;30.83;19.60;;;2.60;1.00;;;;;;5039324;28;20306;-81
2021/11/12 22:06:23;;;;;;;31.00;17.90;;;2.70;1.00;;;;;;5023601;28;20710;-82
2021/11/12 22:08:49;;;;;;;31.47;18.13;;;2.70;1.00;;;;;;5037129;28;20203;-82
2021/11/12 22:11:15;;;;;;;30.67;17.90;;;2.50;1.00;;;;;;5039317;28;20195;-81
2021/11/12 22:13:42;;;;;;;28.33;17.67;;;2.50;1.00;;;;;;5030497;28;20575;-81
2021/11/12 22:16:12;;;;;;;27.13;17.07;;;2.60;1.00;;;;;;5039459;28;20226;-81
2021/11/12 22:18:39;;;;;;;32.73;18.17;;;3.10;1.00;;;;;;5037275;28;20287;-82
2021/11/12 22:21:06;;;;;;;29.17;18.97;;;4.00;1.00;;;;;;5036166;28;20643;-81
2021/11/12 22:23:33;;;;;;;28.17;18.00;;;2.50;1.00;;;;;;5027245;28;20199;-81
2021/11/12 22:25:59;;;;;;;37.57;18.57;;;2.50;1.00;;;;;;5035303;28;20187;-81
2021/11/12 22:28:26;;;;;;;29.00;17.57;;;2.60;1.00;;;;;;5039760;28;20281;-80
2021/11/12 22:30:52;;;;;;;29.03;18.00;;;2.60;1.00;;;;;;5033048;28;20187;-81
2021/11/12 22:33:18;;;;;;;28.57;17.13;;;2.60;1.00;;;;;;5033040;28;20179;-81
2021/11/12 22:35:45;;;;;;;28.70;18.30;;;2.50;1.00;;;;;;5037503;28;20211;-81
2021/11/12 22:38:11;;;;;;;31.83;16.40;;;2.60;1.00;;;;;;5036923;28;20188;-81
2021/11/12 22:40:42;;;;;;;22.87;15.77;;;2.50;1.00;;;;;;5033977;28;20202;-81
2021/11/12 22:43:08;;;;;;;26.30;15.67;;;2.50;1.00;;;;;;5035198;28;20210;-81
2021/11/12 22:45:34;;;;;;;25.77;16.03;;;2.70;1.00;;;;;;5035232;28;20198;-81
2021/11/12 22:48:00;;;;;;;22.77;15.20;;;2.40;1.00;;;;;;5037045;28;20180;-81
2021/11/12 22:50:28;;;;;;;23.30;12.50;;;2.40;1.00;;;;;;5039324;28;20210;-83
2021/11/12 22:52:54;;;;;;;21.40;15.13;;;2.30;1.00;;;;;;5041947;28;20575;-81
2021/11/12 22:55:20;;;;;;;23.37;16.37;;;2.30;1.00;;;;;;5035140;28;20207;-81
2021/11/12 22:57:46;;;;;;;23.53;14.13;;;2.30;1.00;;;;;;5033817;28;20192;-80
2021/11/12 23:00:32;;;;;;;27.67;15.70;;;2.40;1.00;;;;;;5032506;28;20203;-81
2021/11/12 23:03:00;;;;;;;23.97;16.20;;;2.40;1.00;;;;;;5033446;28;20183;-82
2021/11/12 23:05:26;;;;;;;20.93;14.83;;;;;;;;;;5026919;28;20643;-82
2021/11/12 23:07:52;;;;;;;21.07;14.67;;;2.50;1.00;;;;;;5030324;28;20211;-82
2021/11/12 23:10:19;;;;;;;23.83;15.67;;;2.50;1.00;;;;;;5024490;28;20287;-82
2021/11/12 23:12:46;;;;;;;21.50;15.37;;;2.50;1.00;;;;;;5027807;28;20192;-82
2021/11/12 23:15:13;;;;;;;24.37;15.67;;;2.50;1.00;;;;;;5033589;28;20207;-81
2021/11/12 23:17:40;;;;;;;25.47;17.17;;;2.50;1.00;;;;;;5034542;28;20287;-82
2021/11/12 23:20:07;;;;;;;23.57;16.53;;;2.40;1.00;;;;;;5015934;28;20192;-81